Jefferson City, MO

8:34 PM CDT on May 22, 2017 (GMT -0500)
Whitney Woods | | Change Station
Active Advisory: Flood Warning

Elev 719 ft 38.54 °N, 92.18 °W | Updated 1 minute ago

Mostly Cloudy
Mostly Cloudy
70.8 °F
Feels Like 75 °F
N
0.0
Wind Variable Wind from West

Today
High -- | Low -- °F
--% Chance of Precip.
Yesterday
High -- | Low -- °F
Precip. -- in
Pressure 29.89 in
Visibility 10.0 miles
Clouds Mostly Cloudy 5500 ft
Heat Index 75 °F
Dew Point 59 °F
Humidity 65%
Rainfall 0.00 in
Snow Depth Not available.
5:51 AM 8:19 PM
Waning Crescent, 11% visible
METAR KJEF 230053Z 00000KT 10SM BKN055 23/14 A2993 RMK AO2 SLP122 T02280139
Pressure 29.89 in
Visibility 10.0 miles
Clouds Mostly Cloudy 5500 ft
Heat Index 75 °F
Dew Point 59 °F
Humidity 65%
Rainfall 0.00 in
Snow Depth Not available.
5:51 AM 8:19 PM
Waning Crescent, 11% visible
METAR KJEF 230053Z 00000KT 10SM BKN055 23/14 A2993 RMK AO2 SLP122 T02280139

Get Your Daily Forecast Email!

Thanks for signing up!

Be on the lookout for a verification email in your inbox.

You'll start receiving severe weather alerts in your inbox..

×

10-Day Weather Forecast

Almanac

Astronomy

May. 22, 2017 Rise Set
Actual Time
Civil Twilight
Nautical Twilight
Astronomical Twilight
Moon
Length of Visible Light
Length of Day
Tomorrow will be .
, % of the Moon is Illuminated

Today's Extremes

State Highs State Lows

Community

WunderPhotos

Category 6

Welcome to Category 6. This is the collective home for Weather Underground's featured writeups by Dr. Jeff Masters (right), Bob Henson (left), Chris Burt, and other regular contributors.

Nearby

Air Quality

  Air Quality AQ Index Pollutant
Not available.

Snow Depth

Station Depth Elevation

Earthquake Activity

City Distance Mag. Time & Date
Minimum magnitude displayed is 2.5.

Coastal Water Temperatures

Place Temperature

Stations

Nearby Weather Stations

Station Location Temp. Windchill Dew Point Humidity Wind Precip. Elev Updated Type
                   

Watches & Warnings

Flood Warning
Issued: 11:37 AM CDT May. 22, 2017 – National Weather Service

The Flood Warning continues for
the Osage river near mari-Osa campground
* until late Wednesday night.
* At 10:00 am Monday the stage was 19.9 feet.
* Flood stage is 19.0 feet.
* Minor flooding is forecast.
* The river is forecast to crest near 20.0 feet by this evening, then
fall below flood stage Wednesday before midnight.
* Impact: at 20.0 feet... near this stage the lowest two campsites at
mari-Osa campground begin flooding.

                   Fld latest 7 a.M. Forecast
location stg obs stg 05/23 05/24 05/25 05/26 05/27

Osage river
mari-Osa Camp 19.0 19.90 19.9 19.5 18.7 17.6 16.6




Lat... Lon 3871 9185 3873 9164 3868 9164 3855 9192
      3864 9198